sensor_id;sensor_type;location;lat;lon;timestamp;temperature;humidity
10654;DHT22;5375;51.250;6.776;2023-04-24T00:00:08;20.30;51.40
10654;DHT22;5375;51.250;6.776;2023-04-24T00:02:35;20.30;51.40
10654;DHT22;5375;51.250;6.776;2023-04-24T00:05:03;20.30;51.40
10654;DHT22;5375;51.250;6.776;2023-04-24T00:07:30;20.30;51.40
10654;DHT22;5375;51.250;6.776;2023-04-24T00:09:55;20.30;50.80
10654;DHT22;5375;51.250;6.776;2023-04-24T00:12:21;20.30;51.40
10654;DHT22;5375;51.250;6.776;2023-04-24T00:14:47;20.30;51.30
10654;DHT22;5375;51.250;6.776;2023-04-24T00:17:12;20.30;51.30
10654;DHT22;5375;51.250;6.776;2023-04-24T00:19:38;20.30;51.30
10654;DHT22;5375;51.250;6.776;2023-04-24T00:22:04;20.30;51.40
10654;DHT22;5375;51.250;6.776;2023-04-24T00:24:29;20.30;51.50
10654;DHT22;5375;51.250;6.776;2023-04-24T00:26:55;20.30;51.30
10654;DHT22;5375;51.250;6.776;2023-04-24T00:29:21;20.30;51.30
10654;DHT22;5375;51.250;6.776;2023-04-24T00:31:46;20.30;51.30
10654;DHT22;5375;51.250;6.776;2023-04-24T00:34:12;20.30;51.30
10654;DHT22;5375;51.250;6.776;2023-04-24T00:36:38;20.20;51.20
10654;DHT22;5375;51.250;6.776;2023-04-24T00:39:03;20.30;51.30
10654;DHT22;5375;51.250;6.776;2023-04-24T00:41:29;20.30;51.30
10654;DHT22;5375;51.250;6.776;2023-04-24T00:43:55;20.30;51.20
10654;DHT22;5375;51.250;6.776;2023-04-24T00:46:21;20.30;51.20
10654;DHT22;5375;51.250;6.776;2023-04-24T00:48:47;20.30;51.20
10654;DHT22;5375;51.250;6.776;2023-04-24T00:51:13;20.30;51.20
10654;DHT22;5375;51.250;6.776;2023-04-24T00:53:38;20.20;51.20
10654;DHT22;5375;51.250;6.776;2023-04-24T00:56:04;20.20;51.10
10654;DHT22;5375;51.250;6.776;2023-04-24T00:58:30;20.20;51.10
10654;DHT22;5375;51.250;6.776;2023-04-24T01:00:57;20.20;51.10
10654;DHT22;5375;51.250;6.776;2023-04-24T01:03:29;20.20;51.10
10654;DHT22;5375;51.250;6.776;2023-04-24T01:05:55;20.20;51.10
10654;DHT22;5375;51.250;6.776;2023-04-24T01:08:23;20.20;51.10
10654;DHT22;5375;51.250;6.776;2023-04-24T01:10:51;20.20;51.10
10654;DHT22;5375;51.250;6.776;2023-04-24T01:13:18;20.20;51.10
10654;DHT22;5375;51.250;6.776;2023-04-24T01:15:44;20.20;50.60
10654;DHT22;5375;51.250;6.776;2023-04-24T01:18:10;20.20;51.10
10654;DHT22;5375;51.250;6.776;2023-04-24T01:20:37;20.20;51.10
10654;DHT22;5375;51.250;6.776;2023-04-24T01:23:05;20.20;51.10
10654;DHT22;5375;51.250;6.776;2023-04-24T01:25:31;20.20;51.40
10654;DHT22;5375;51.250;6.776;2023-04-24T01:27:57;20.20;51.10
10654;DHT22;5375;51.250;6.776;2023-04-24T01:30:24;20.20;51.10
10654;DHT22;5375;51.250;6.776;2023-04-24T01:32:50;20.20;51.10
10654;DHT22;5375;51.250;6.776;2023-04-24T01:35:16;20.20;51.10
10654;DHT22;5375;51.250;6.776;2023-04-24T01:37:41;20.20;51.10
10654;DHT22;5375;51.250;6.776;2023-04-24T01:40:07;20.20;51.10
10654;DHT22;5375;51.250;6.776;2023-04-24T01:42:34;20.20;51.10
10654;DHT22;5375;51.250;6.776;2023-04-24T01:45:01;20.20;51.10
10654;DHT22;5375;51.250;6.776;2023-04-24T01:47:27;20.20;51.10
10654;DHT22;5375;51.250;6.776;2023-04-24T01:49:53;20.20;51.10
10654;DHT22;5375;51.250;6.776;2023-04-24T01:52:18;20.20;51.10
10654;DHT22;5375;51.250;6.776;2023-04-24T01:54:44;20.10;51.10
10654;DHT22;5375;51.250;6.776;2023-04-24T01:57:10;20.10;51.10
10654;DHT22;5375;51.250;6.776;2023-04-24T01:59:36;20.20;51.00
10654;DHT22;5375;51.250;6.776;2023-04-24T02:02:05;20.20;51.00
10654;DHT22;5375;51.250;6.776;2023-04-24T02:04:31;20.20;51.00
10654;DHT22;5375;51.250;6.776;2023-04-24T02:06:56;20.20;51.10
10654;DHT22;5375;51.250;6.776;2023-04-24T02:09:22;20.20;51.10
10654;DHT22;5375;51.250;6.776;2023-04-24T02:11:48;20.20;51.20
10654;DHT22;5375;51.250;6.776;2023-04-24T02:14:13;20.20;51.20
10654;DHT22;5375;51.250;6.776;2023-04-24T02:16:39;20.20;51.10
10654;DHT22;5375;51.250;6.776;2023-04-24T02:19:04;20.20;51.10
10654;DHT22;5375;51.250;6.776;2023-04-24T02:21:30;20.20;51.10
10654;DHT22;5375;51.250;6.776;2023-04-24T02:23:58;20.20;51.10
10654;DHT22;5375;51.250;6.776;2023-04-24T02:26:24;20.20;51.00
10654;DHT22;5375;51.250;6.776;2023-04-24T02:28:50;20.20;51.00
10654;DHT22;5375;51.250;6.776;2023-04-24T02:31:15;20.20;51.00
10654;DHT22;5375;51.250;6.776;2023-04-24T02:33:41;20.20;51.00
10654;DHT22;5375;51.250;6.776;2023-04-24T02:36:07;20.20;50.90
10654;DHT22;5375;51.250;6.776;2023-04-24T02:38:33;20.20;50.90
10654;DHT22;5375;51.250;6.776;2023-04-24T02:40:58;20.20;50.90
10654;DHT22;5375;51.250;6.776;2023-04-24T02:43:24;20.20;50.90
10654;DHT22;5375;51.250;6.776;2023-04-24T04:09:23;20.10;50.20
10654;DHT22;5375;51.250;6.776;2023-04-24T04:11:49;20.10;50.90
10654;DHT22;5375;51.250;6.776;2023-04-24T04:14:14;20.10;51.00
10654;DHT22;5375;51.250;6.776;2023-04-24T04:16:40;20.10;51.10
10654;DHT22;5375;51.250;6.776;2023-04-24T04:19:06;20.10;51.70
10654;DHT22;5375;51.250;6.776;2023-04-24T04:21:31;20.10;51.00
10654;DHT22;5375;51.250;6.776;2023-04-24T04:23:57;20.10;51.00
10654;DHT22;5375;51.250;6.776;2023-04-24T04:26:23;20.20;51.10
10654;DHT22;5375;51.250;6.776;2023-04-24T04:28:51;20.20;50.80
10654;DHT22;5375;51.250;6.776;2023-04-24T04:31:18;20.20;50.50
10654;DHT22;5375;51.250;6.776;2023-04-24T04:33:44;20.10;50.30
10654;DHT22;5375;51.250;6.776;2023-04-24T04:36:10;20.10;50.30
10654;DHT22;5375;51.250;6.776;2023-04-24T04:38:36;20.00;50.30
10654;DHT22;5375;51.250;6.776;2023-04-24T04:41:02;20.10;50.20
10654;DHT22;5375;51.250;6.776;2023-04-24T04:43:28;20.00;50.10
10654;DHT22;5375;51.250;6.776;2023-04-24T04:45:54;20.00;50.10
10654;DHT22;5375;51.250;6.776;2023-04-24T04:48:21;20.00;50.30
10654;DHT22;5375;51.250;6.776;2023-04-24T04:50:47;20.00;50.50
10654;DHT22;5375;51.250;6.776;2023-04-24T04:53:13;20.00;50.50
10654;DHT22;5375;51.250;6.776;2023-04-24T04:55:38;20.10;50.50
10654;DHT22;5375;51.250;6.776;2023-04-24T04:58:04;20.10;50.50
10654;DHT22;5375;51.250;6.776;2023-04-24T05:00:30;20.10;50.50
10654;DHT22;5375;51.250;6.776;2023-04-24T05:03:01;20.20;50.50
10654;DHT22;5375;51.250;6.776;2023-04-24T05:05:26;20.20;50.50
10654;DHT22;5375;51.250;6.776;2023-04-24T05:07:52;20.20;50.40
10654;DHT22;5375;51.250;6.776;2023-04-24T05:10:17;20.20;50.50
10654;DHT22;5375;51.250;6.776;2023-04-24T05:12:43;20.20;50.40
10654;DHT22;5375;51.250;6.776;2023-04-24T05:15:09;20.20;50.40
10654;DHT22;5375;51.250;6.776;2023-04-24T05:17:35;20.20;50.40
10654;DHT22;5375;51.250;6.776;2023-04-24T05:20:01;20.20;50.40
10654;DHT22;5375;51.250;6.776;2023-04-24T05:22:28;20.20;50.40
10654;DHT22;5375;51.250;6.776;2023-04-24T05:24:53;20.20;50.30
10654;DHT22;5375;51.250;6.776;2023-04-24T05:27:19;20.20;50.30
10654;DHT22;5375;51.250;6.776;2023-04-24T05:29:45;20.20;50.30
10654;DHT22;5375;51.250;6.776;2023-04-24T05:32:11;20.20;50.30
10654;DHT22;5375;51.250;6.776;2023-04-24T05:34:37;20.20;50.30
10654;DHT22;5375;51.250;6.776;2023-04-24T05:37:02;20.20;50.30
10654;DHT22;5375;51.250;6.776;2023-04-24T05:39:28;20.20;50.30
10654;DHT22;5375;51.250;6.776;2023-04-24T05:41:54;20.20;50.30
10654;DHT22;5375;51.250;6.776;2023-04-24T05:44:23;20.20;50.20
10654;DHT22;5375;51.250;6.776;2023-04-24T05:46:48;20.20;50.30
10654;DHT22;5375;51.250;6.776;2023-04-24T05:49:14;20.20;50.20
10654;DHT22;5375;51.250;6.776;2023-04-24T05:51:40;20.30;50.30
10654;DHT22;5375;51.250;6.776;2023-04-24T05:54:05;20.30;50.30
10654;DHT22;5375;51.250;6.776;2023-04-24T05:56:31;20.30;50.30
10654;DHT22;5375;51.250;6.776;2023-04-24T05:58:56;20.30;50.30
10654;DHT22;5375;51.250;6.776;2023-04-24T06:01:22;20.30;50.30
10654;DHT22;5375;51.250;6.776;2023-04-24T06:03:48;20.30;50.30
10654;DHT22;5375;51.250;6.776;2023-04-24T06:06:14;20.30;50.30
10654;DHT22;5375;51.250;6.776;2023-04-24T06:08:40;20.30;50.30
10654;DHT22;5375;51.250;6.776;2023-04-24T06:11:07;20.30;50.30
10654;DHT22;5375;51.250;6.776;2023-04-24T06:13:33;20.30;50.30
10654;DHT22;5375;51.250;6.776;2023-04-24T06:15:58;20.30;50.30
10654;DHT22;5375;51.250;6.776;2023-04-24T06:18:24;20.30;50.30
10654;DHT22;5375;51.250;6.776;2023-04-24T06:20:50;20.30;50.30
10654;DHT22;5375;51.250;6.776;2023-04-24T06:23:15;20.30;50.30
10654;DHT22;5375;51.250;6.776;2023-04-24T06:25:41;20.40;50.40
10654;DHT22;5375;51.250;6.776;2023-04-24T06:28:07;20.30;50.30
10654;DHT22;5375;51.250;6.776;2023-04-24T06:30:32;20.40;50.30
10654;DHT22;5375;51.250;6.776;2023-04-24T06:32:58;20.30;50.30
10654;DHT22;5375;51.250;6.776;2023-04-24T06:35:23;19.60;49.90
10654;DHT22;5375;51.250;6.776;2023-04-24T06:37:49;20.40;50.30
10654;DHT22;5375;51.250;6.776;2023-04-24T06:40:15;20.40;50.30
10654;DHT22;5375;51.250;6.776;2023-04-24T06:42:41;20.40;50.30
10654;DHT22;5375;51.250;6.776;2023-04-24T06:45:07;20.40;50.30
10654;DHT22;5375;51.250;6.776;2023-04-24T06:47:33;20.40;50.30
10654;DHT22;5375;51.250;6.776;2023-04-24T06:49:59;20.40;50.30
10654;DHT22;5375;51.250;6.776;2023-04-24T06:52:24;20.40;50.30
10654;DHT22;5375;51.250;6.776;2023-04-24T06:54:50;20.40;50.30
10654;DHT22;5375;51.250;6.776;2023-04-24T06:57:16;20.40;50.30
10654;DHT22;5375;51.250;6.776;2023-04-24T06:59:42;20.30;50.30
10654;DHT22;5375;51.250;6.776;2023-04-24T07:02:07;20.40;50.30
10654;DHT22;5375;51.250;6.776;2023-04-24T07:04:33;20.40;50.30
10654;DHT22;5375;51.250;6.776;2023-04-24T07:06:58;20.40;50.40
10654;DHT22;5375;51.250;6.776;2023-04-24T07:09:25;20.40;50.30
10654;DHT22;5375;51.250;6.776;2023-04-24T07:11:54;20.40;50.40
10654;DHT22;5375;51.250;6.776;2023-04-24T07:14:22;20.40;50.40
10654;DHT22;5375;51.250;6.776;2023-04-24T07:16:48;20.40;50.40
10654;DHT22;5375;51.250;6.776;2023-04-24T07:19:13;20.40;50.40
10654;DHT22;5375;51.250;6.776;2023-04-24T07:21:39;20.40;50.40
10654;DHT22;5375;51.250;6.776;2023-04-24T07:24:05;20.40;50.40
10654;DHT22;5375;51.250;6.776;2023-04-24T07:26:31;20.40;50.40
10654;DHT22;5375;51.250;6.776;2023-04-24T07:28:56;20.40;50.40
10654;DHT22;5375;51.250;6.776;2023-04-24T07:31:22;20.40;50.40
10654;DHT22;5375;51.250;6.776;2023-04-24T07:33:48;20.40;50.40
10654;DHT22;5375;51.250;6.776;2023-04-24T07:36:14;20.40;50.40
10654;DHT22;5375;51.250;6.776;2023-04-24T07:38:45;20.40;50.50
10654;DHT22;5375;51.250;6.776;2023-04-24T07:41:12;20.40;50.40
10654;DHT22;5375;51.250;6.776;2023-04-24T07:43:38;20.40;50.40
10654;DHT22;5375;51.250;6.776;2023-04-24T07:46:03;20.40;50.40
10654;DHT22;5375;51.250;6.776;2023-04-24T07:48:29;20.40;50.40
10654;DHT22;5375;51.250;6.776;2023-04-24T07:50:54;20.40;51.10
10654;DHT22;5375;51.250;6.776;2023-04-24T07:53:20;20.40;50.50
10654;DHT22;5375;51.250;6.776;2023-04-24T07:55:46;20.40;50.50
10654;DHT22;5375;51.250;6.776;2023-04-24T07:58:12;20.40;50.50
10654;DHT22;5375;51.250;6.776;2023-04-24T08:00:37;20.40;50.50
10654;DHT22;5375;51.250;6.776;2023-04-24T08:03:03;20.40;50.50
10654;DHT22;5375;51.250;6.776;2023-04-24T08:05:28;20.40;50.50
10654;DHT22;5375;51.250;6.776;2023-04-24T08:07:55;20.40;50.40
10654;DHT22;5375;51.250;6.776;2023-04-24T08:10:21;20.40;50.40
10654;DHT22;5375;51.250;6.776;2023-04-24T08:12:47;20.40;50.40
10654;DHT22;5375;51.250;6.776;2023-04-24T08:15:13;20.40;51.00
10654;DHT22;5375;51.250;6.776;2023-04-24T08:17:38;20.40;50.40
10654;DHT22;5375;51.250;6.776;2023-04-24T08:20:04;20.40;50.40
10654;DHT22;5375;51.250;6.776;2023-04-24T08:22:30;20.40;50.40
10654;DHT22;5375;51.250;6.776;2023-04-24T08:24:56;20.40;50.40
10654;DHT22;5375;51.250;6.776;2023-04-24T08:27:26;20.50;50.50
10654;DHT22;5375;51.250;6.776;2023-04-24T08:29:53;20.40;50.40
10654;DHT22;5375;51.250;6.776;2023-04-24T08:32:19;20.50;50.40
10654;DHT22;5375;51.250;6.776;2023-04-24T08:34:44;20.50;50.40
10654;DHT22;5375;51.250;6.776;2023-04-24T08:37:10;20.50;50.40
10654;DHT22;5375;51.250;6.776;2023-04-24T08:39:36;20.40;50.50
10654;DHT22;5375;51.250;6.776;2023-04-24T08:42:03;20.40;50.30
10654;DHT22;5375;51.250;6.776;2023-04-24T08:44:33;20.50;50.40
10654;DHT22;5375;51.250;6.776;2023-04-24T08:47:00;20.50;50.40
10654;DHT22;5375;51.250;6.776;2023-04-24T08:49:28;20.40;50.30
10654;DHT22;5375;51.250;6.776;2023-04-24T08:51:53;20.40;50.30
10654;DHT22;5375;51.250;6.776;2023-04-24T08:54:19;20.40;50.30
10654;DHT22;5375;51.250;6.776;2023-04-24T08:56:47;20.40;50.30
10654;DHT22;5375;51.250;6.776;2023-04-24T08:59:14;20.40;50.30
10654;DHT22;5375;51.250;6.776;2023-04-24T09:01:41;20.40;50.30
10654;DHT22;5375;51.250;6.776;2023-04-24T09:04:08;20.40;50.30
10654;DHT22;5375;51.250;6.776;2023-04-24T09:06:38;20.40;50.30
10654;DHT22;5375;51.250;6.776;2023-04-24T09:09:04;20.40;50.30
10654;DHT22;5375;51.250;6.776;2023-04-24T09:11:31;20.40;50.30
10654;DHT22;5375;51.250;6.776;2023-04-24T09:14:00;20.40;50.20
10654;DHT22;5375;51.250;6.776;2023-04-24T09:16:26;20.40;50.20
10654;DHT22;5375;51.250;6.776;2023-04-24T09:18:52;20.40;50.20
10654;DHT22;5375;51.250;6.776;2023-04-24T09:21:20;20.40;50.20
10654;DHT22;5375;51.250;6.776;2023-04-24T09:23:46;20.40;50.20
10654;DHT22;5375;51.250;6.776;2023-04-24T09:26:12;20.40;50.10
10654;DHT22;5375;51.250;6.776;2023-04-24T09:28:41;20.40;50.10
10654;DHT22;5375;51.250;6.776;2023-04-24T09:31:18;20.30;50.10
10654;DHT22;5375;51.250;6.776;2023-04-24T09:33:58;20.40;50.10
10654;DHT22;5375;51.250;6.776;2023-04-24T09:36:32;20.40;50.10
10654;DHT22;5375;51.250;6.776;2023-04-24T09:39:02;20.40;50.20
10654;DHT22;5375;51.250;6.776;2023-04-24T09:41:29;20.40;50.20
10654;DHT22;5375;51.250;6.776;2023-04-24T09:43:56;20.40;50.10
10654;DHT22;5375;51.250;6.776;2023-04-24T09:46:29;20.40;50.10
10654;DHT22;5375;51.250;6.776;2023-04-24T09:48:56;20.50;50.10
10654;DHT22;5375;51.250;6.776;2023-04-24T09:51:34;20.50;50.70
10654;DHT22;5375;51.250;6.776;2023-04-24T09:54:04;20.50;50.10
10654;DHT22;5375;51.250;6.776;2023-04-24T09:56:33;20.40;50.10
10654;DHT22;5375;51.250;6.776;2023-04-24T09:59:08;20.40;50.10
10654;DHT22;5375;51.250;6.776;2023-04-24T10:01:34;20.40;50.10
10654;DHT22;5375;51.250;6.776;2023-04-24T10:04:00;20.40;50.10
10654;DHT22;5375;51.250;6.776;2023-04-24T10:06:34;20.40;50.10
10654;DHT22;5375;51.250;6.776;2023-04-24T10:09:00;20.40;50.10
10654;DHT22;5375;51.250;6.776;2023-04-24T10:11:27;20.40;50.10
10654;DHT22;5375;51.250;6.776;2023-04-24T10:13:53;20.40;50.20
10654;DHT22;5375;51.250;6.776;2023-04-24T10:16:21;20.30;50.10
10654;DHT22;5375;51.250;6.776;2023-04-24T10:18:48;20.30;50.10
10654;DHT22;5375;51.250;6.776;2023-04-24T10:21:15;20.30;50.10
10654;DHT22;5375;51.250;6.776;2023-04-24T10:23:42;20.30;50.00
10654;DHT22;5375;51.250;6.776;2023-04-24T10:26:12;20.40;50.10
10654;DHT22;5375;51.250;6.776;2023-04-24T10:28:46;20.30;50.00
10654;DHT22;5375;51.250;6.776;2023-04-24T10:31:13;20.40;50.10
10654;DHT22;5375;51.250;6.776;2023-04-24T10:33:41;20.40;50.10
10654;DHT22;5375;51.250;6.776;2023-04-24T10:36:09;20.40;50.10
10654;DHT22;5375;51.250;6.776;2023-04-24T10:38:37;20.40;50.00
10654;DHT22;5375;51.250;6.776;2023-04-24T10:41:12;20.40;50.00
10654;DHT22;5375;51.250;6.776;2023-04-24T10:43:41;20.40;50.70
10654;DHT22;5375;51.250;6.776;2023-04-24T10:46:08;20.40;50.10
10654;DHT22;5375;51.250;6.776;2023-04-24T10:48:35;20.40;50.00
10654;DHT22;5375;51.250;6.776;2023-04-24T10:51:01;20.40;50.00
10654;DHT22;5375;51.250;6.776;2023-04-24T10:53:29;20.40;50.00
10654;DHT22;5375;51.250;6.776;2023-04-24T10:56:06;20.40;50.00
10654;DHT22;5375;51.250;6.776;2023-04-24T10:58:49;20.40;50.00
10654;DHT22;5375;51.250;6.776;2023-04-24T11:01:33;20.40;50.00
10654;DHT22;5375;51.250;6.776;2023-04-24T11:04:00;20.40;50.10
10654;DHT22;5375;51.250;6.776;2023-04-24T11:06:32;20.40;50.10
10654;DHT22;5375;51.250;6.776;2023-04-24T11:09:06;20.40;50.10
10654;DHT22;5375;51.250;6.776;2023-04-24T11:11:34;20.40;50.00
10654;DHT22;5375;51.250;6.776;2023-04-24T11:16:30;20.40;50.10
10654;DHT22;5375;51.250;6.776;2023-04-24T11:19:03;20.40;50.00
10654;DHT22;5375;51.250;6.776;2023-04-24T11:21:40;20.40;50.00
10654;DHT22;5375;51.250;6.776;2023-04-24T11:32:29;20.40;50.00
10654;DHT22;5375;51.250;6.776;2023-04-24T11:34:59;20.40;50.00
10654;DHT22;5375;51.250;6.776;2023-04-24T11:37:37;20.40;50.10
10654;DHT22;5375;51.250;6.776;2023-04-24T11:40:05;20.40;50.10
10654;DHT22;5375;51.250;6.776;2023-04-24T11:42:38;20.40;50.10
10654;DHT22;5375;51.250;6.776;2023-04-24T11:45:11;20.40;50.70
10654;DHT22;5375;51.250;6.776;2023-04-24T11:47:38;20.40;50.70
10654;DHT22;5375;51.250;6.776;2023-04-24T11:50:05;20.40;50.10
10654;DHT22;5375;51.250;6.776;2023-04-24T11:52:37;20.40;50.10
10654;DHT22;5375;51.250;6.776;2023-04-24T11:55:03;20.40;50.10
10654;DHT22;5375;51.250;6.776;2023-04-24T11:57:29;20.30;50.00
10654;DHT22;5375;51.250;6.776;2023-04-24T12:00:00;20.30;50.00
10654;DHT22;5375;51.250;6.776;2023-04-24T12:02:26;20.30;50.00
10654;DHT22;5375;51.250;6.776;2023-04-24T12:04:55;20.30;50.00
10654;DHT22;5375;51.250;6.776;2023-04-24T12:07:22;20.30;50.00
10654;DHT22;5375;51.250;6.776;2023-04-24T12:09:55;20.30;50.00
10654;DHT22;5375;51.250;6.776;2023-04-24T12:12:22;20.30;50.00
10654;DHT22;5375;51.250;6.776;2023-04-24T12:14:53;20.30;49.90
10654;DHT22;5375;51.250;6.776;2023-04-24T12:17:31;20.30;49.90
10654;DHT22;5375;51.250;6.776;2023-04-24T12:20:06;20.30;49.90
10654;DHT22;5375;51.250;6.776;2023-04-24T12:22:55;20.30;49.90
10654;DHT22;5375;51.250;6.776;2023-04-24T12:25:26;20.30;49.90
10654;DHT22;5375;51.250;6.776;2023-04-24T12:31:06;20.30;49.70
10654;DHT22;5375;51.250;6.776;2023-04-24T12:33:34;20.30;49.70
10654;DHT22;5375;51.250;6.776;2023-04-24T12:36:00;20.30;49.80
10654;DHT22;5375;51.250;6.776;2023-04-24T12:38:29;20.30;49.80
10654;DHT22;5375;51.250;6.776;2023-04-24T12:41:12;20.30;49.80
10654;DHT22;5375;51.250;6.776;2023-04-24T12:43:38;20.30;49.80
10654;DHT22;5375;51.250;6.776;2023-04-24T12:46:04;20.30;49.80
10654;DHT22;5375;51.250;6.776;2023-04-24T12:48:30;20.30;49.90
10654;DHT22;5375;51.250;6.776;2023-04-24T12:50:59;20.30;49.80
10654;DHT22;5375;51.250;6.776;2023-04-24T12:53:28;20.30;49.80
10654;DHT22;5375;51.250;6.776;2023-04-24T12:55:57;20.40;49.80
10654;DHT22;5375;51.250;6.776;2023-04-24T12:58:23;20.40;49.80
10654;DHT22;5375;51.250;6.776;2023-04-24T13:00:49;20.40;49.80
10654;DHT22;5375;51.250;6.776;2023-04-24T13:03:15;20.40;49.80
10654;DHT22;5375;51.250;6.776;2023-04-24T13:41:11;20.40;49.70
10654;DHT22;5375;51.250;6.776;2023-04-24T13:44:17;20.40;49.80
10654;DHT22;5375;51.250;6.776;2023-04-24T15:49:10;20.30;49.80
10654;DHT22;5375;51.250;6.776;2023-04-24T15:51:44;20.30;49.70
10654;DHT22;5375;51.250;6.776;2023-04-24T15:54:09;20.30;49.70
10654;DHT22;5375;51.250;6.776;2023-04-24T15:56:35;20.30;49.70
10654;DHT22;5375;51.250;6.776;2023-04-24T15:59:01;20.30;49.70
10654;DHT22;5375;51.250;6.776;2023-04-24T16:01:29;20.30;49.70
10654;DHT22;5375;51.250;6.776;2023-04-24T16:03:55;20.30;49.60
10654;DHT22;5375;51.250;6.776;2023-04-24T16:06:21;20.30;49.60
10654;DHT22;5375;51.250;6.776;2023-04-24T16:08:48;20.30;49.50
10654;DHT22;5375;51.250;6.776;2023-04-24T16:11:23;20.30;49.60
10654;DHT22;5375;51.250;6.776;2023-04-24T16:13:49;20.30;49.50
10654;DHT22;5375;51.250;6.776;2023-04-24T16:16:15;20.30;49.50
10654;DHT22;5375;51.250;6.776;2023-04-24T16:18:43;20.30;49.50
10654;DHT22;5375;51.250;6.776;2023-04-24T16:21:12;20.30;49.50
10654;DHT22;5375;51.250;6.776;2023-04-24T16:23:40;20.30;49.40
10654;DHT22;5375;51.250;6.776;2023-04-24T16:26:06;20.30;49.40
10654;DHT22;5375;51.250;6.776;2023-04-24T16:28:32;20.30;49.40
10654;DHT22;5375;51.250;6.776;2023-04-24T16:30:57;20.30;49.40
10654;DHT22;5375;51.250;6.776;2023-04-24T16:33:23;20.30;49.30
10654;DHT22;5375;51.250;6.776;2023-04-24T16:35:50;20.30;49.30
10654;DHT22;5375;51.250;6.776;2023-04-24T16:38:16;20.30;49.30
10654;DHT22;5375;51.250;6.776;2023-04-24T16:40:41;20.30;49.20
10654;DHT22;5375;51.250;6.776;2023-04-24T16:43:07;20.30;49.20
10654;DHT22;5375;51.250;6.776;2023-04-24T16:45:37;20.30;49.20
10654;DHT22;5375;51.250;6.776;2023-04-24T16:48:02;20.30;49.10
10654;DHT22;5375;51.250;6.776;2023-04-24T16:50:28;20.30;49.10
10654;DHT22;5375;51.250;6.776;2023-04-24T16:52:54;20.30;49.10
10654;DHT22;5375;51.250;6.776;2023-04-24T16:55:19;20.30;49.10
10654;DHT22;5375;51.250;6.776;2023-04-24T16:57:45;20.30;49.10
10654;DHT22;5375;51.250;6.776;2023-04-24T17:00:11;20.30;49.10
10654;DHT22;5375;51.250;6.776;2023-04-24T17:02:37;20.30;49.10
10654;DHT22;5375;51.250;6.776;2023-04-24T17:05:03;20.30;49.10
10654;DHT22;5375;51.250;6.776;2023-04-24T17:07:30;20.20;49.00
10654;DHT22;5375;51.250;6.776;2023-04-24T17:09:56;20.20;49.10
10654;DHT22;5375;51.250;6.776;2023-04-24T17:12:21;20.20;49.00
10654;DHT22;5375;51.250;6.776;2023-04-24T17:14:47;20.20;49.10
10654;DHT22;5375;51.250;6.776;2023-04-24T17:17:13;20.20;49.00
10654;DHT22;5375;51.250;6.776;2023-04-24T17:19:42;20.20;49.00
10654;DHT22;5375;51.250;6.776;2023-04-24T17:22:09;20.20;49.00
10654;DHT22;5375;51.250;6.776;2023-04-24T17:24:34;20.20;49.00
10654;DHT22;5375;51.250;6.776;2023-04-24T17:27:00;20.20;49.00
10654;DHT22;5375;51.250;6.776;2023-04-24T17:29:27;20.20;49.00
10654;DHT22;5375;51.250;6.776;2023-04-24T17:31:54;20.20;49.00
10654;DHT22;5375;51.250;6.776;2023-04-24T17:34:19;20.20;49.00
10654;DHT22;5375;51.250;6.776;2023-04-24T17:36:45;20.20;49.00
10654;DHT22;5375;51.250;6.776;2023-04-24T17:39:11;20.20;49.00
10654;DHT22;5375;51.250;6.776;2023-04-24T17:41:36;20.20;49.00
10654;DHT22;5375;51.250;6.776;2023-04-24T17:44:02;20.20;49.00
10654;DHT22;5375;51.250;6.776;2023-04-24T17:46:28;20.20;49.00
10654;DHT22;5375;51.250;6.776;2023-04-24T17:48:57;20.20;49.00
10654;DHT22;5375;51.250;6.776;2023-04-24T17:51:23;20.20;49.00
10654;DHT22;5375;51.250;6.776;2023-04-24T17:53:51;20.10;48.90
10654;DHT22;5375;51.250;6.776;2023-04-24T17:56:18;20.10;48.90
10654;DHT22;5375;51.250;6.776;2023-04-24T17:58:45;20.20;49.00
10654;DHT22;5375;51.250;6.776;2023-04-24T18:01:11;20.10;48.90
10654;DHT22;5375;51.250;6.776;2023-04-24T18:03:37;20.10;48.90
10654;DHT22;5375;51.250;6.776;2023-04-24T18:06:04;20.10;48.90
10654;DHT22;5375;51.250;6.776;2023-04-24T18:08:31;20.10;48.90
10654;DHT22;5375;51.250;6.776;2023-04-24T18:10:57;20.10;48.90
10654;DHT22;5375;51.250;6.776;2023-04-24T18:13:24;20.10;49.00
10654;DHT22;5375;51.250;6.776;2023-04-24T18:15:51;20.10;48.90
10654;DHT22;5375;51.250;6.776;2023-04-24T18:18:16;20.10;48.90
10654;DHT22;5375;51.250;6.776;2023-04-24T18:20:42;20.10;48.90
10654;DHT22;5375;51.250;6.776;2023-04-24T18:23:08;20.10;48.90
10654;DHT22;5375;51.250;6.776;2023-04-24T18:25:38;20.10;48.90
10654;DHT22;5375;51.250;6.776;2023-04-24T18:28:07;20.10;48.90
10654;DHT22;5375;51.250;6.776;2023-04-24T18:30:33;20.10;48.90
10654;DHT22;5375;51.250;6.776;2023-04-24T18:32:59;20.10;48.90
10654;DHT22;5375;51.250;6.776;2023-04-24T18:35:25;20.10;48.90
10654;DHT22;5375;51.250;6.776;2023-04-24T18:37:51;20.10;48.90
10654;DHT22;5375;51.250;6.776;2023-04-24T18:40:16;20.10;48.90
10654;DHT22;5375;51.250;6.776;2023-04-24T18:42:43;20.10;48.90
10654;DHT22;5375;51.250;6.776;2023-04-24T18:45:11;20.10;48.90
10654;DHT22;5375;51.250;6.776;2023-04-24T18:47:37;20.10;48.90
10654;DHT22;5375;51.250;6.776;2023-04-24T18:50:04;20.10;48.90
10654;DHT22;5375;51.250;6.776;2023-04-24T18:52:30;20.10;48.90
10654;DHT22;5375;51.250;6.776;2023-04-24T18:54:57;20.10;48.90
10654;DHT22;5375;51.250;6.776;2023-04-24T18:57:23;20.10;48.90
10654;DHT22;5375;51.250;6.776;2023-04-24T18:59:49;20.10;48.90
10654;DHT22;5375;51.250;6.776;2023-04-24T19:02:15;20.10;49.00
10654;DHT22;5375;51.250;6.776;2023-04-24T19:04:41;20.20;49.00
10654;DHT22;5375;51.250;6.776;2023-04-24T19:07:07;20.10;49.00
10654;DHT22;5375;51.250;6.776;2023-04-24T19:09:34;20.20;49.10
10654;DHT22;5375;51.250;6.776;2023-04-24T19:12:00;20.20;49.10
10654;DHT22;5375;51.250;6.776;2023-04-24T19:14:26;20.20;49.10
10654;DHT22;5375;51.250;6.776;2023-04-24T19:16:52;20.20;49.10
10654;DHT22;5375;51.250;6.776;2023-04-24T19:19:19;20.20;49.10
10654;DHT22;5375;51.250;6.776;2023-04-24T19:21:46;20.20;49.10
10654;DHT22;5375;51.250;6.776;2023-04-24T19:24:12;20.20;49.10
10654;DHT22;5375;51.250;6.776;2023-04-24T19:26:37;20.20;49.10
10654;DHT22;5375;51.250;6.776;2023-04-24T19:29:04;20.20;49.10
10654;DHT22;5375;51.250;6.776;2023-04-24T19:31:30;20.20;49.10
10654;DHT22;5375;51.250;6.776;2023-04-24T19:33:56;20.20;49.20
10654;DHT22;5375;51.250;6.776;2023-04-24T19:36:23;20.20;49.20
10654;DHT22;5375;51.250;6.776;2023-04-24T19:38:50;20.20;49.20
10654;DHT22;5375;51.250;6.776;2023-04-24T19:41:15;20.20;49.20
10654;DHT22;5375;51.250;6.776;2023-04-24T19:43:41;20.20;49.10
10654;DHT22;5375;51.250;6.776;2023-04-24T19:46:07;18.10;48.20
10654;DHT22;5375;51.250;6.776;2023-04-24T19:48:33;20.20;49.20
10654;DHT22;5375;51.250;6.776;2023-04-24T19:51:02;20.20;49.20
10654;DHT22;5375;51.250;6.776;2023-04-24T19:53:28;20.20;49.20
10654;DHT22;5375;51.250;6.776;2023-04-24T19:55:57;20.20;49.20
10654;DHT22;5375;51.250;6.776;2023-04-24T19:58:24;20.20;49.30